Latest Weather Observations for Stenhouse Bay

IDS60801

Issued at 3:05 am CDT Saturday 1 November 2014 (issued every 30 minutes, with the page automatically refreshed every 10 minutes)

About weather observations | Map of weather stations | Latest weather observations for SA | Other Formats
Station Details ID: 022049 Name: STENHOUSE BAY Lat: -35.28 Lon: 136.94 Height: 42.0 m
Data from the previous 72 hours. | See also: Recent months at Stenhouse Bay
Date/Time
CDT
Temp
°C
App
Temp
°C
Dew
Point
Rel
Hum
%
Delta-T
°C
Wind Press
QNH
hPa
Press
MSL
hPa
Rain
since 9 am
mm
Dir
 
Spd
km/h
Gust
km/h
Spd
kts
Gust
kts
01/03:00am 13.8 6.6 7.6 66 3.1 SW 35 50 19 27 1009.2 1009.1 0.6
01/02:30am 14.0 6.2 8.4 69 2.8 SW 39 54 21 29 1008.9 1008.8 0.6
01/02:00am 14.0 7.0 9.8 76 2.2 SW 37 59 20 32 1008.5 1008.4 0.6
01/01:48am 14.4 7.0 10.0 75 2.3 SW 39 57 21 31 1008.2 1008.1 0.6
01/01:30am 13.7 6.0 10.1 79 1.9 SW 41 54 22 29 1008.1 1008.0 0.6
01/01:26am 13.7 6.3 11.2 85 1.3 SW 41 59 22 32 1008.3 1008.2 0.6
01/01:00am 13.9 7.8 11.9 88 1.1 SW 35 52 19 28 1008.1 1008.0 0.6
01/12:41am 14.1 7.3 12.1 88 1.1 SW 39 59 21 32 1007.9 1007.8 0.6
01/12:30am 13.9 7.9 12.1 89 1.0 WSW 35 50 19 27 1007.8 1007.7 0.6
01/12:00am 13.8 8.0 12.7 93 0.6 SW 35 50 19 27 1007.7 1007.6 0.6
 
Date/Time
CDT
Temp
°C
App
Temp
°C
Dew
Point
Rel
Hum
%
Delta-T
°C
Wind Press
QNH
hPa
Press
MSL
hPa
Rain
since 9 am
mm
Dir
 
Spd
km/h
Gust
km/h
Spd
kts
Gust
kts
31/11:52pm 14.1 8.9 12.7 91 0.8 SW 32 48 17 26 1007.7 1007.6 0.6
31/11:30pm 14.6 11.5 11.7 83 1.6 W 19 26 10 14 1007.4 1007.3 0.4
31/11:00pm 14.4 11.3 11.7 84 1.5 W 19 32 10 17 1007.3 1007.2 0.4
31/10:30pm 14.0 10.8 11.3 84 1.4 WSW 19 28 10 15 1006.9 1006.8 0.4
31/10:00pm 14.1 10.7 11.4 84 1.4 WSW 20 30 11 16 1006.7 1006.6 0.4
31/09:30pm 14.1 10.4 11.4 84 1.4 WSW 22 33 12 18 1006.5 1006.4 0.4
31/09:00pm 13.9 10.5 11.4 85 1.3 WSW 20 28 11 15 1005.4 1005.4 0.4
31/08:30pm 14.2 10.3 12.1 87 1.1 WSW 24 33 13 18 1005.6 1005.6 0.4
31/08:00pm 13.9 9.6 11.9 88 1.1 SW 26 37 14 20 1004.9 1004.9 0.4
31/07:30pm 14.5 9.1 12.7 89 1.0 WSW 33 48 18 26 1004.5 1004.5 0.4
31/07:00pm 15.4 9.2 12.5 83 1.6 SW 37 50 20 27 1004.0 1004.0 0.0
31/06:30pm 16.1 9.5 12.5 79 2.0 WSW 39 52 21 28 1004.1 1004.1 0.0
31/06:00pm 16.4 11.4 13.5 83 1.6 SW 32 43 17 23 1002.7 1002.7 0.0
31/05:30pm 16.8 11.6 13.5 81 1.9 SW 33 46 18 25 1002.7 1002.7 0.0
31/05:00pm 17.0 10.6 13.3 79 2.1 WSW 39 54 21 29 1002.7 1002.7 0.0
31/04:30pm 18.3 13.3 15.0 81 1.9 WSW 35 52 19 28 1002.1 1002.1 0.0
31/04:00pm 18.7 14.1 15.0 79 2.2 WSW 33 43 18 23 1001.8 1001.8 0.0
31/03:30pm 21.5 18.3 14.2 63 4.3 WSW 24 33 13 18 1001.6 1001.6 0.0
31/03:00pm 22.1 19.9 13.2 57 5.1 WSW 17 26 9 14 1001.7 1001.7 0.0
31/02:30pm 22.8 19.9 13.0 54 5.7 WSW 20 28 11 15 1002.1 1002.1 0.0
31/02:00pm 23.3 18.9 11.7 48 6.5 WSW 26 35 14 19 1002.3 1002.3 0.0
31/01:30pm 24.0 18.8 10.3 42 7.6 WSW 28 39 15 21 1002.5 1002.5 0.0
31/01:00pm 25.3 21.1 7.4 32 9.5 WSW 19 30 10 16 1002.3 1002.3 0.0
31/12:30pm 25.6 21.5 6.3 29 10.1 W 17 26 9 14 1002.6 1002.6 0.0
31/12:00pm 25.6 21.1 6.8 30 9.9 WNW 20 28 11 15 1002.8 1002.8 0.0
31/11:30am 26.2 22.4 7.7 31 9.9 WNW 17 26 9 14 1003.2 1003.2 0.0
31/11:00am 25.9 21.1 8.8 34 9.3 NW 24 35 13 19 1003.8 1003.8 0.0
31/10:33am 24.6 19.4 9.0 37 8.4 NNW 26 33 14 18 1003.3 1003.3 0.0
31/10:30am 24.5 16.8 11.5 44 7.4 W 43 56 23 30 1004.1 1004.1 0.0
31/10:29am 26.0 20.2 9.4 35 9.2 NW 30 56 16 30 1004.2 1004.2 0.0
31/10:27am 25.4 19.5 7.5 32 9.5 NNW 28 35 15 19 1003.3 1003.3 0.0
31/10:24am 26.4 20.0 12.1 41 8.2 W 37 50 20 27 1003.8 1003.8 0.0
31/10:00am 28.6 22.8 6.1 24 11.8 N 26 37 14 20 1002.8 1002.8 0.0
31/09:30am 26.7 22.3 7.2 29 10.4 N 20 28 11 15 1003.1 1003.1 0.0
31/09:00am 24.7 19.9 7.4 33 9.1 N 22 32 12 17 1003.5 1003.5 0.0
31/08:30am 22.0 19.2 9.9 46 6.6 N 15 19 8 10 1003.7 1003.7 0.0
31/08:00am 19.4 18.0 9.6 53 5.2 N 7 11 4 6 1004.1 1004.1 0.0
31/07:30am 17.6 14.5 9.0 57 4.5 N 15 20 8 11 1004.2 1004.2 0.0
31/07:00am 16.7 13.2 8.7 59 4.1 N 17 22 9 12 1004.0 1004.0 0.0
31/06:30am 15.9 12.1 7.7 58 4.1 N 17 20 9 11 1004.2 1004.2 0.0
31/06:00am 15.8 12.5 8.1 60 3.9 N 15 19 8 10 1004.4 1004.4 0.0
31/05:30am 15.3 12.3 9.4 68 3.1 N 15 17 8 9 1004.6 1004.6 0.0
31/05:00am 15.2 13.2 11.4 78 2.0 N 13 15 7 8 1004.7 1004.7 0.0
31/04:30am 15.6 12.9 11.6 77 2.2 N 17 20 9 11 1005.3 1005.3 0.0
31/04:00am 15.5 13.8 12.6 83 1.6 N 13 19 7 10 1005.8 1005.8 0.0
31/03:30am 16.8 15.3 14.1 84 1.5 NNE 15 19 8 10 1006.4 1006.3 0.0
31/03:00am 17.1 15.1 14.9 87 1.3 ENE 19 24 10 13 1006.8 1006.7 0.0
31/02:30am 16.9 14.9 14.0 83 1.7 ENE 17 22 9 12 1007.3 1007.2 0.0
31/02:00am 16.9 15.7 14.0 83 1.7 ENE 13 19 7 10 1007.9 1007.8 0.0
31/01:30am 16.8 15.7 14.4 86 1.4 E 13 20 7 11 1008.5 1008.4 0.0
31/01:00am 16.9 15.5 14.5 86 1.4 E 15 20 8 11 1009.0 1008.9 0.0
31/12:30am 16.9 16.2 14.2 84 1.5 E 11 17 6 9 1009.8 1009.7 0.0
31/12:00am 16.6 15.0 13.9 84 1.5 E 15 19 8 10 1010.2 1010.1 0.0
 
Date/Time
CDT
Temp
°C
App
Temp
°C
Dew
Point
Rel
Hum
%
Delta-T
°C
Wind Press
QNH
hPa
Press
MSL
hPa
Rain
since 9 am
mm
Dir
 
Spd
km/h
Gust
km/h
Spd
kts
Gust
kts
30/11:30pm 16.5 15.4 14.2 86 1.3 E 13 17 7 9 1010.4 1010.3 0.0
30/11:00pm 16.6 15.1 14.1 85 1.4 E 15 19 8 10 1010.9 1010.8 0.0
30/10:30pm 16.6 15.8 14.1 85 1.4 E 11 13 6 7 1011.5 1011.4 0.0
30/10:00pm 16.5 15.6 13.8 84 1.5 E 11 13 6 7 1011.7 1011.6 0.0
30/09:30pm 16.6 15.6 13.3 81 1.9 ENE 11 15 6 8 1011.8 1011.7 0.0
30/09:00pm 16.7 14.7 12.8 78 2.2 ENE 15 19 8 10 1011.7 1011.6 0.0
30/08:30pm 16.6 14.9 12.6 77 2.2 ENE 13 17 7 9 1011.8 1011.7 0.0
30/08:00pm 16.4 14.8 12.9 80 1.9 E 13 15 7 8 1011.8 1011.7 0.0
30/07:30pm 16.5 14.9 12.8 79 2.1 ESE 13 15 7 8 1011.5 1011.4 0.0
30/07:00pm 17.4 16.2 12.7 74 2.6 SE 11 15 6 8 1011.5 1011.4 0.0
30/06:30pm 18.1 17.0 13.0 72 2.9 ESE 11 13 6 7 1011.5 1011.4 0.0
30/06:00pm 18.0 16.3 12.5 70 3.1 E 13 15 7 8 1011.7 1011.6 0.0
30/05:30pm 18.1 17.0 12.1 68 3.3 E 9 13 5 7 1012.0 1011.9 0.0
30/05:00pm 17.8 16.5 11.1 65 3.6 E 9 11 5 6 1012.3 1012.2 0.0
30/04:30pm 18.4 17.0 11.0 62 4.0 ESE 9 11 5 6 1012.7 1012.6 0.0
30/04:00pm 18.3 17.2 10.7 61 4.1 E 7 11 4 6 1013.3 1013.2 0.0
30/03:30pm 17.3 15.7 10.2 63 3.8 SSE 9 13 5 7 1013.6 1013.5 0.0
30/03:00pm 18.1 16.1 10.2 60 4.2 SE 11 13 6 7 1014.0 1013.9 0.0
30/02:30pm 17.6 15.6 10.2 62 3.9 SE 11 15 6 8 1014.4 1014.3 0.0
30/02:00pm 17.6 15.1 9.8 60 4.1 SSE 13 17 7 9 1014.9 1014.8 0.0
30/01:30pm 17.9 16.2 10.0 60 4.2 SSE 9 13 5 7 1015.3 1015.2 0.0
30/01:00pm 17.4 15.3 9.8 61 4.0 SE 11 17 6 9 1015.1 1015.0 0.0
30/12:30pm 17.4 15.3 9.8 61 4.0 SE 11 15 6 8 1015.7 1015.6 0.0
30/12:00pm 17.2 15.1 9.6 61 4.0 SSE 11 15 6 8 1015.8 1015.7 0.0
30/11:30am 17.7 15.6 9.6 59 4.3 SSE 11 15 6 8 1016.0 1015.9 0.0
30/11:00am 16.9 15.1 9.3 61 4.0 SSE 9 13 5 7 1016.0 1015.9 0.0
30/10:30am 17.2 15.4 9.6 61 4.0 SE 9 13 5 7 1016.4 1016.3 0.0
30/10:00am 17.0 15.1 9.2 60 4.1 SE 9 13 5 7 1016.5 1016.4 0.0
30/09:30am 16.2 14.7 9.2 63 3.6 SSE 7 11 4 6 1016.6 1016.5 0.0
30/09:00am 16.0 14.7 9.2 64 3.5 E 6 9 3 5 1016.6 1016.5 0.0
30/08:30am 15.4 14.4 8.9 65 3.3 ENE 4 7 2 4 1016.4 1016.3 0.0
30/08:00am 14.8 13.8 9.0 68 3.0 N 4 7 2 4 1016.3 1016.2 0.0
30/07:30am 13.6 13.1 9.5 76 2.1 N 2 4 1 2 1016.5 1016.4 0.0
30/07:00am 12.4 11.8 9.1 80 1.7 W 2 4 1 2 1016.5 1016.4 0.0
30/06:30am 12.4 12.1 8.7 78 1.8 CALM 0 0 0 0 1016.2 1016.1 0.0
30/06:00am 12.0 11.7 8.5 79 1.7 CALM 0 0 0 0 1016.0 1015.9 0.0
30/05:30am 11.4 11.1 8.6 83 1.4 CALM 0 0 0 0 1015.8 1015.7 0.0
30/05:00am 11.5 9.9 8.0 79 1.7 N 6 7 3 4 1015.2 1015.1 0.0
30/04:30am 13.3 11.8 9.0 75 2.2 S 7 9 4 5 1015.7 1015.6 0.0
30/04:00am 13.6 11.4 9.3 75 2.2 S 11 15 6 8 1016.3 1016.2 0.0
30/03:30am 13.6 11.0 9.5 76 2.1 S 13 15 7 8 1016.3 1016.2 0.0
30/03:00am 13.4 11.0 10.2 81 1.7 SSW 13 17 7 9 1016.3 1016.2 0.0
30/02:30am 12.6 11.3 10.1 85 1.3 SSW 7 11 4 6 1016.3 1016.2 0.0
30/02:00am 12.6 11.8 9.6 82 1.5 S 4 4 2 2 1016.1 1016.0 0.0
30/01:30am 12.9 12.5 9.9 82 1.5 SSW 2 6 1 3 1016.4 1016.3 0.0
30/01:00am 13.1 11.5 10.1 82 1.5 SSW 9 13 5 7 1016.7 1016.6 0.0
30/12:30am 13.3 12.0 9.9 80 1.7 S 7 11 4 6 1017.3 1017.3 0.0
30/12:00am 14.0 11.7 10.4 79 1.9 S 13 17 7 9 1017.6 1017.6 0.0
 
Date/Time
CDT
Temp
°C
App
Temp
°C
Dew
Point
Rel
Hum
%
Delta-T
°C
Wind Press
QNH
hPa
Press
MSL
hPa
Rain
since 9 am
mm
Dir
 
Spd
km/h
Gust
km/h
Spd
kts
Gust
kts
29/11:30pm 14.2 11.6 10.6 79 1.9 S 15 20 8 11 1017.8 1017.8 0.0
29/11:00pm 14.3 11.7 10.7 79 1.9 S 15 20 8 11 1017.9 1017.9 0.0
29/10:30pm 14.4 11.3 10.4 77 2.1 S 17 20 9 11 1018.2 1018.2 0.0
29/10:00pm 14.3 11.5 9.9 75 2.3 SSW 15 20 8 11 1018.2 1018.2 0.0
29/09:30pm 14.6 11.2 10.6 77 2.1 SSW 19 26 10 14 1017.7 1017.7 0.0
29/09:00pm 14.5 11.3 9.9 74 2.4 SSW 17 24 9 13 1017.5 1017.5 0.0
29/08:30pm 14.6 11.0 10.0 74 2.4 SSW 19 26 10 14 1017.3 1017.3 0.0
29/08:00pm 15.0 11.7 10.8 76 2.2 S 19 24 10 13 1017.3 1017.3 0.0
29/07:30pm 15.3 12.0 10.9 75 2.3 SSW 19 26 10 14 1017.5 1017.5 0.0
29/07:00pm 15.6 13.1 11.0 74 2.5 SSW 15 22 8 12 1017.3 1017.3 0.0
29/06:30pm 15.9 13.4 11.1 73 2.6 SW 15 22 8 12 1017.5 1017.5 0.0
29/06:00pm 16.6 14.0 10.7 68 3.1 SSW 15 26 8 14 1017.1 1017.0 0.0
29/05:30pm 16.1 13.3 10.0 67 3.2 SW 15 24 8 13 1017.0 1016.9 0.0
29/05:00pm 16.5 12.9 10.6 68 3.1 SW 20 28 11 15 1017.1 1017.0 0.0
29/04:30pm 17.3 13.8 10.2 63 3.8 SW 19 26 10 14 1017.2 1017.2 0.0
29/04:00pm 17.7 14.2 10.8 64 3.7 SW 20 26 11 14 1017.4 1017.4 0.0
29/03:30pm 18.5 14.3 9.8 57 4.6 SW 22 30 12 16 1017.2 1017.2 0.0
29/03:00pm 18.5 13.9 9.6 56 4.7 SW 24 30 13 16 1017.4 1017.4 0.0
29/02:30pm 19.2 15.4 9.9 55 5.0 SW 20 30 11 16 1017.7 1017.7 0.0
29/02:00pm 21.3 19.3 10.2 49 6.0 NW 11 24 6 13 1017.9 1017.9 0.0
29/01:30pm 20.9 18.8 9.8 49 6.0 NNW 11 26 6 14 1018.3 1018.3 0.0
29/01:00pm 20.3 17.4 9.5 50 5.8 NW 15 24 8 13 1018.5 1018.5 0.0
29/12:30pm 19.7 16.5 9.9 53 5.2 NW 17 28 9 15 1018.7 1018.7 0.0
29/12:00pm 19.4 16.7 10.4 56 4.8 NNW 15 26 8 14 1018.9 1018.9 0.0
29/11:30am 20.1 17.6 11.1 56 4.9 NW 15 26 8 14 1019.2 1019.2 0.0
29/11:00am 18.2 15.5 10.3 60 4.2 NNW 15 24 8 13 1019.2 1019.2 0.0
29/10:30am 17.2 15.2 10.3 64 3.7 NNW 11 19 6 10 1019.3 1019.3 0.0
29/10:00am 16.8 15.2 10.2 65 3.5 NW 9 13 5 7 1019.4 1019.4 0.0
29/09:30am 16.8 15.3 10.4 66 3.4 NNW 9 17 5 9 1019.3 1019.3 0.0
29/09:00am 16.2 14.7 10.5 69 3.0 N 9 17 5 9 1019.5 1019.5 0.0
29/08:30am 15.9 14.7 10.4 70 2.9 NNW 7 9 4 5 1019.6 1019.6 0.0
29/08:00am 14.7 14.1 10.3 75 2.3 NNW 4 7 2 4 1019.6 1019.6 0.0
29/07:30am 13.8 13.5 10.2 79 1.9 NW 2 4 1 2 1019.5 1019.5 0.0
29/07:00am 13.3 12.6 9.9 80 1.8 NNW 4 4 2 2 1019.6 1019.6 0.0
29/06:30am 12.8 12.0 9.8 82 1.5 NW 4 6 2 3 1019.4 1019.4 0.0
29/06:00am 12.8 12.0 9.6 81 1.6 NNW 4 4 2 2 1019.3 1019.3 0.0
29/05:30am 13.0 12.2 9.6 80 1.7 NNW 4 6 2 3 1019.3 1019.3 0.0
29/05:00am 13.4 12.3 10.0 80 1.8 NW 6 6 3 3 1019.2 1019.2 0.0
29/04:30am 13.5 12.8 9.9 79 1.9 NW 4 4 2 2 1019.1 1019.1 0.0
29/04:00am 13.5 12.8 10.1 80 1.8 W 4 6 2 3 1019.1 1019.1 0.0
29/03:30am 13.5 12.7 9.6 77 2.0 W 4 4 2 2 1019.1 1019.1 0.0

Other Formats:

Comma delimited format used in spreadsheet applications
http://www.bom.gov.au/fwo/IDS60801/IDS60801.95806.axf

JavaScript Object Notation format (JSON) in row-major order
http://www.bom.gov.au/fwo/IDS60801/IDS60801.95806.json